createdAt,value
2023-03-19T00:00:09.716Z,1.33
2023-03-19T00:03:33.854Z,1.13
2023-03-19T00:06:56.419Z,1.42
2023-03-19T00:10:18.749Z,1.45
2023-03-19T00:13:41.381Z,1.73
2023-03-19T00:17:03.634Z,1.92
2023-03-19T00:20:26.175Z,2.25
2023-03-19T00:23:48.420Z,2.45
2023-03-19T00:27:12.007Z,0.70
2023-03-19T00:30:34.347Z,2.80
2023-03-19T00:33:59.920Z,1.63
2023-03-19T00:37:22.559Z,0.63
2023-03-19T00:40:44.839Z,0.55
2023-03-19T00:44:08.538Z,1.58
2023-03-19T00:47:30.779Z,0.80
2023-03-19T00:50:53.139Z,1.05
2023-03-19T00:54:15.566Z,0.93
2023-03-19T00:57:37.716Z,0.98
2023-03-19T01:01:00.813Z,1.35
2023-03-19T01:04:23.479Z,2.25
2023-03-19T01:07:45.991Z,0.73
2023-03-19T01:11:15.341Z,0.40
2023-03-19T01:14:38.023Z,1.02
2023-03-19T01:18:01.117Z,6.47
2023-03-19T01:21:23.451Z,0.63
2023-03-19T01:24:47.003Z,1.35
2023-03-19T01:28:09.460Z,2.53
2023-03-19T01:31:34.691Z,1.48
2023-03-19T01:35:08.309Z,0.65
2023-03-19T01:38:31.392Z,2.03
2023-03-19T01:42:02.238Z,2.67
2023-03-19T01:45:44.923Z,0.47
2023-03-19T01:49:27.675Z,1.88
2023-03-19T01:53:07.266Z,0.77
2023-03-19T02:00:29.216Z,2.28
2023-03-19T02:03:53.016Z,0.50
2023-03-19T02:07:35.233Z,0.80
2023-03-19T02:11:00.282Z,1.55
2023-03-19T02:14:22.930Z,0.50
2023-03-19T02:17:46.527Z,1.75
2023-03-19T02:21:11.456Z,0.57
2023-03-19T02:24:39.060Z,0.88
2023-03-19T02:28:07.872Z,0.50
2023-03-19T02:31:30.661Z,1.25
2023-03-19T02:34:53.144Z,2.15
2023-03-19T02:38:15.791Z,0.63
2023-03-19T02:41:39.684Z,1.15
2023-03-19T02:45:01.982Z,0.45
2023-03-19T02:48:24.736Z,1.67
2023-03-19T02:51:47.117Z,0.90
2023-03-19T02:55:09.647Z,0.55
2023-03-19T02:58:32.313Z,0.63
2023-03-19T03:01:54.963Z,3.05
2023-03-19T03:05:17.467Z,1.15
2023-03-19T03:08:39.643Z,1.05
2023-03-19T03:12:03.908Z,1.40
2023-03-19T03:15:26.255Z,1.80
2023-03-19T03:18:48.637Z,0.88
2023-03-19T03:22:10.994Z,1.05
2023-03-19T03:25:35.321Z,1.05
2023-03-19T03:28:57.489Z,2.25
2023-03-19T03:32:19.667Z,1.27
2023-03-19T03:35:41.893Z,1.27
2023-03-19T03:39:04.478Z,2.05
2023-03-19T03:42:27.164Z,0.98
2023-03-19T03:45:49.895Z,1.00
2023-03-19T03:49:13.222Z,0.70
2023-03-19T03:52:35.822Z,1.70
2023-03-19T03:55:58.178Z,0.57
2023-03-19T03:59:22.639Z,1.25
2023-03-19T04:02:44.904Z,0.82
2023-03-19T04:06:18.621Z,1.38
2023-03-19T04:09:43.716Z,2.47
2023-03-19T04:13:06.197Z,1.45
2023-03-19T04:16:29.333Z,0.68
2023-03-19T04:19:51.986Z,0.98
2023-03-19T04:23:14.283Z,2.28
2023-03-19T04:26:37.757Z,1.10
2023-03-19T04:30:00.114Z,0.85
2023-03-19T04:33:23.403Z,0.90
2023-03-19T04:36:46.111Z,0.93
2023-03-19T04:40:09.576Z,1.50
2023-03-19T04:43:33.134Z,3.25
2023-03-19T04:50:21.008Z,1.13
2023-03-19T04:53:43.596Z,3.38
2023-03-19T04:57:06.007Z,2.97
2023-03-19T05:00:32.101Z,4.13
2023-03-19T05:03:55.217Z,1.17
2023-03-19T05:07:17.973Z,0.63
2023-03-19T05:10:40.999Z,2.13
2023-03-19T05:14:03.960Z,0.85
2023-03-19T05:17:36.476Z,0.82
2023-03-19T05:21:15.899Z,3.25
2023-03-19T05:24:39.309Z,0.98
2023-03-19T05:28:04.622Z,0.50
2023-03-19T05:31:27.481Z,0.65
2023-03-19T05:34:50.193Z,1.48
2023-03-19T05:38:13.290Z,0.93
2023-03-19T05:41:38.238Z,1.17
2023-03-19T05:45:02.439Z,1.15
2023-03-19T05:48:33.964Z,1.17
2023-03-19T05:51:58.514Z,1.17
2023-03-19T05:55:20.845Z,3.65
2023-03-19T05:58:49.030Z,2.35
2023-03-19T06:02:16.336Z,1.33
2023-03-19T06:05:38.714Z,1.67
2023-03-19T06:09:11.099Z,0.80
2023-03-19T06:12:38.600Z,1.13
2023-03-19T06:16:22.256Z,1.83
2023-03-19T06:19:48.999Z,1.08
2023-03-19T06:23:11.357Z,1.52
2023-03-19T06:26:33.992Z,0.30
2023-03-19T06:29:59.738Z,0.28
2023-03-19T06:33:32.035Z,0.35
2023-03-19T06:36:54.506Z,0.20
2023-03-19T06:40:16.968Z,1.33
2023-03-19T06:43:41.927Z,0.93
2023-03-19T06:47:04.314Z,0.40
2023-03-19T06:50:27.983Z,0.43
2023-03-19T06:53:50.223Z,1.00
2023-03-19T06:57:12.696Z,0.63
2023-03-19T07:00:35.933Z,0.50
2023-03-19T07:03:58.521Z,0.65
2023-03-19T07:07:21.076Z,1.52
2023-03-19T07:10:43.349Z,0.70
2023-03-19T07:14:05.862Z,1.48
2023-03-19T07:17:28.124Z,0.95
2023-03-19T07:20:50.345Z,1.13
2023-03-19T07:24:12.666Z,0.52
2023-03-19T07:27:34.995Z,6.07
2023-03-19T07:30:57.328Z,0.43
2023-03-19T07:34:19.654Z,0.73
2023-03-19T07:37:42.839Z,3.10
2023-03-19T07:41:05.220Z,0.80
2023-03-19T07:44:27.498Z,1.40
2023-03-19T07:47:52.877Z,0.95
2023-03-19T07:51:15.449Z,1.63
2023-03-19T07:54:37.763Z,10.10
2023-03-19T07:58:00.043Z,8.52
2023-03-19T08:01:22.509Z,3.70
2023-03-19T08:04:44.922Z,5.00
2023-03-19T08:08:07.292Z,6.72
2023-03-19T08:11:30.068Z,4.18
2023-03-19T08:14:52.351Z,4.20
2023-03-19T08:18:14.575Z,2.80
2023-03-19T08:21:37.284Z,4.00
2023-03-19T08:24:59.545Z,4.70
2023-03-19T08:28:21.890Z,5.20
2023-03-19T08:31:44.235Z,9.43
2023-03-19T08:35:07.487Z,5.53
2023-03-19T08:38:29.803Z,4.20
2023-03-19T08:41:52.076Z,3.38
2023-03-19T08:45:16.032Z,9.55
2023-03-19T08:48:40.900Z,1.90
2023-03-19T08:52:04.089Z,3.95
2023-03-19T08:55:26.342Z,3.20
2023-03-19T08:58:48.656Z,3.03
2023-03-19T09:02:12.327Z,4.28
2023-03-19T09:05:36.267Z,6.28
2023-03-19T09:08:58.524Z,3.78
2023-03-19T09:12:21.062Z,4.85
2023-03-19T09:15:43.412Z,3.00
2023-03-19T09:19:05.776Z,2.72
2023-03-19T09:22:28.032Z,3.83
2023-03-19T09:25:50.420Z,4.30
2023-03-19T09:29:13.698Z,8.15
2023-03-19T09:32:36.964Z,1.08
2023-03-19T09:35:59.301Z,10.57
2023-03-19T09:39:21.499Z,9.40
2023-03-19T09:42:56.929Z,1.55
2023-03-19T09:46:23.666Z,2.08
2023-03-19T09:49:50.773Z,2.33
2023-03-19T09:53:37.788Z,3.38
2023-03-19T09:57:01.177Z,2.92
2023-03-19T10:00:36.993Z,1.55
2023-03-19T10:04:20.736Z,4.68
2023-03-19T10:07:48.842Z,6.97
2023-03-19T10:11:36.468Z,2.13
2023-03-19T10:15:14.951Z,4.03
2023-03-19T10:18:39.375Z,7.50
2023-03-19T10:22:07.906Z,5.00
2023-03-19T10:25:33.656Z,2.45
2023-03-19T10:29:02.186Z,3.88
2023-03-19T10:32:37.425Z,3.22
2023-03-19T10:36:07.947Z,3.60
2023-03-19T10:39:33.456Z,2.85
2023-03-19T10:43:07.614Z,2.78
2023-03-19T10:46:42.843Z,4.35
2023-03-19T10:50:05.568Z,2.50
2023-03-19T10:53:32.810Z,2.25
2023-03-19T10:56:57.176Z,5.10
2023-03-19T11:00:24.927Z,5.97
2023-03-19T11:03:55.145Z,8.75
2023-03-19T11:07:21.803Z,71.75
2023-03-19T11:10:49.433Z,78.05
2023-03-19T11:14:19.039Z,49.45
2023-03-19T11:17:47.811Z,45.65
2023-03-19T11:21:25.360Z,33.55
2023-03-19T11:25:19.678Z,33.47
2023-03-19T11:28:44.575Z,34.35
2023-03-19T11:32:21.560Z,24.33
2023-03-19T11:36:12.941Z,31.25
2023-03-19T11:39:59.345Z,29.33
2023-03-19T11:43:40.895Z,28.88
2023-03-19T11:47:28.157Z,16.30
2023-03-19T11:51:03.390Z,12.93
2023-03-19T11:54:53.120Z,15.65
2023-03-19T11:58:40.240Z,16.13
2023-03-19T12:02:02.410Z,16.30
2023-03-19T12:05:35.493Z,11.32
2023-03-19T12:09:14.505Z,18.27
2023-03-19T12:13:02.366Z,9.10
2023-03-19T12:16:51.129Z,9.50
2023-03-19T12:20:41.670Z,10.50
2023-03-19T12:24:33.353Z,11.73
2023-03-19T12:28:06.591Z,15.48
2023-03-19T12:31:33.693Z,18.60
2023-03-19T12:35:01.325Z,9.70
2023-03-19T12:38:29.378Z,9.70
2023-03-19T12:41:53.333Z,6.07
2023-03-19T12:45:39.781Z,7.70
2023-03-19T12:49:30.455Z,10.73
2023-03-19T12:52:58.150Z,11.32
2023-03-19T12:56:31.684Z,10.57
2023-03-19T13:00:02.086Z,10.45
2023-03-19T13:04:03.271Z,6.25
2023-03-19T13:08:39.659Z,4.03
2023-03-19T13:12:20.521Z,4.77
2023-03-19T13:15:48.111Z,3.78
2023-03-19T13:19:28.109Z,8.27
2023-03-19T13:22:56.191Z,9.15
2023-03-19T13:26:19.057Z,4.57
2023-03-19T13:29:58.670Z,5.43
2023-03-19T13:33:22.875Z,5.25
2023-03-19T13:37:00.377Z,4.80
2023-03-19T13:40:45.782Z,5.35
2023-03-19T13:44:38.739Z,2.40
2023-03-19T13:48:34.572Z,3.05
2023-03-19T13:52:17.095Z,10.50
2023-03-19T13:55:54.740Z,5.28
2023-03-19T13:59:16.943Z,4.53
2023-03-19T14:02:39.698Z,4.93
2023-03-19T14:06:03.774Z,4.00
2023-03-19T14:09:40.560Z,5.68
2023-03-19T14:13:09.482Z,4.38
2023-03-19T14:16:35.966Z,4.40
2023-03-19T14:20:32.877Z,6.97
2023-03-19T14:24:58.273Z,3.40
2023-03-19T14:28:32.282Z,3.58
2023-03-19T14:32:00.208Z,8.50
2023-03-19T14:35:26.195Z,2.55
2023-03-19T14:38:58.455Z,2.47
2023-03-19T14:42:27.119Z,4.03
2023-03-19T14:46:00.838Z,3.35
2023-03-19T14:49:49.085Z,1.70
2023-03-19T14:53:24.416Z,2.95
2023-03-19T14:56:48.210Z,2.40
2023-03-19T15:00:17.443Z,2.25
2023-03-19T15:03:39.725Z,1.17
2023-03-19T15:07:02.104Z,4.47
2023-03-19T15:10:29.035Z,1.83
2023-03-19T15:14:19.030Z,1.35
2023-03-19T15:17:43.726Z,1.27
2023-03-19T15:21:08.114Z,3.03
2023-03-19T15:24:30.488Z,2.42
2023-03-19T15:28:13.521Z,2.03
2023-03-19T15:31:52.122Z,2.78
2023-03-19T15:35:16.493Z,1.02
2023-03-19T15:38:52.229Z,3.85
2023-03-19T15:42:17.171Z,1.60
2023-03-19T15:45:42.231Z,3.90
2023-03-19T15:49:27.256Z,2.85
2023-03-19T15:53:13.431Z,2.20
2023-03-19T15:56:35.737Z,2.53
2023-03-19T16:00:01.872Z,1.27
2023-03-19T16:03:59.382Z,2.83
2023-03-19T16:07:26.202Z,4.47
2023-03-19T16:10:48.496Z,1.98
2023-03-19T16:14:11.934Z,1.98
2023-03-19T16:17:35.257Z,2.33
2023-03-19T16:21:16.660Z,1.63
2023-03-19T16:24:42.221Z,0.70
2023-03-19T16:28:13.516Z,0.68
2023-03-19T16:31:44.312Z,1.00
2023-03-19T16:35:11.988Z,3.25
2023-03-19T16:38:44.397Z,1.15
2023-03-19T16:42:08.745Z,1.20
2023-03-19T16:45:32.946Z,1.58
2023-03-19T16:48:55.468Z,1.77
2023-03-19T16:52:22.247Z,0.95
2023-03-19T16:55:44.506Z,1.23
2023-03-19T16:59:06.855Z,1.33
2023-03-19T17:02:29.337Z,1.55
2023-03-19T17:05:51.730Z,2.55
2023-03-19T17:09:14.050Z,2.42
2023-03-19T17:12:36.469Z,3.15
2023-03-19T17:16:02.564Z,1.23
2023-03-19T17:19:28.313Z,0.80
2023-03-19T17:22:50.566Z,0.90
2023-03-19T17:26:19.165Z,1.17
2023-03-19T17:29:41.403Z,1.33
2023-03-19T17:33:03.687Z,2.97
2023-03-19T17:36:26.104Z,2.53
2023-03-19T17:39:48.395Z,7.82
2023-03-19T17:43:12.551Z,1.63
2023-03-19T17:46:39.406Z,3.50
2023-03-19T17:50:01.932Z,2.28
2023-03-19T17:53:24.126Z,0.93
2023-03-19T17:56:46.595Z,6.10
2023-03-19T18:00:10.091Z,2.78
2023-03-19T18:03:36.324Z,2.75
2023-03-19T18:06:58.588Z,1.83
2023-03-19T18:10:23.643Z,2.88
2023-03-19T18:13:46.126Z,1.13
2023-03-19T18:17:15.936Z,2.13
2023-03-19T18:20:39.644Z,1.33
2023-03-19T18:24:02.070Z,1.27
2023-03-19T18:27:24.929Z,3.70
2023-03-19T18:30:47.306Z,2.72
2023-03-19T18:34:13.190Z,2.70
2023-03-19T18:37:36.169Z,1.40
2023-03-19T18:40:58.359Z,3.17
2023-03-19T18:44:21.004Z,2.30
2023-03-19T18:47:45.014Z,2.47
2023-03-19T18:51:10.987Z,6.10
2023-03-19T18:54:33.206Z,1.52
2023-03-19T18:58:02.084Z,2.00
2023-03-19T19:01:25.723Z,7.43
2023-03-19T19:04:48.344Z,6.20
2023-03-19T19:08:15.337Z,4.63
2023-03-19T19:11:40.217Z,4.53
2023-03-19T19:15:05.043Z,8.85
2023-03-19T19:18:31.487Z,6.32
2023-03-19T19:21:54.400Z,5.85
2023-03-19T19:25:20.349Z,4.53
2023-03-19T19:28:42.548Z,8.63
2023-03-19T19:32:18.039Z,2.72
2023-03-19T19:39:02.536Z,5.53
2023-03-19T19:42:24.836Z,4.38
2023-03-19T19:45:50.017Z,4.80
2023-03-19T19:52:35.627Z,4.28
2023-03-19T19:55:58.084Z,4.93
2023-03-19T19:59:23.695Z,8.50
2023-03-19T20:02:46.138Z,4.90
2023-03-19T20:06:08.385Z,6.15
2023-03-19T20:09:30.734Z,4.95
2023-03-19T20:12:56.114Z,3.63
2023-03-19T20:16:20.763Z,2.70
2023-03-19T20:19:44.013Z,4.03
2023-03-19T20:23:06.568Z,6.43
2023-03-19T20:26:29.549Z,3.70
2023-03-19T20:29:53.598Z,5.63
2023-03-19T20:33:18.110Z,6.47
2023-03-19T20:36:40.406Z,3.63
2023-03-19T20:40:02.733Z,4.60
2023-03-19T20:43:34.067Z,5.18
2023-03-19T20:46:56.380Z,4.50
2023-03-19T20:50:28.063Z,3.63
2023-03-19T20:53:51.771Z,3.05
2023-03-19T20:57:21.245Z,3.33
2023-03-19T21:00:43.806Z,5.85
2023-03-19T21:04:06.059Z,4.57
2023-03-19T21:07:34.451Z,5.13
2023-03-19T21:10:56.662Z,3.38
2023-03-19T21:14:18.892Z,5.15
2023-03-19T21:17:41.122Z,5.47
2023-03-19T21:21:03.396Z,5.10
2023-03-19T21:24:26.240Z,10.43
2023-03-19T21:27:52.436Z,5.20
2023-03-19T21:31:18.741Z,3.75
2023-03-19T21:34:41.134Z,8.43
2023-03-19T21:38:03.369Z,5.20
2023-03-19T21:41:33.401Z,7.50
2023-03-19T21:44:59.531Z,4.95
2023-03-19T21:48:33.605Z,2.65
2023-03-19T21:51:57.156Z,9.95
2023-03-19T21:55:19.878Z,5.22
2023-03-19T21:58:42.436Z,3.72
2023-03-19T22:02:22.340Z,3.30
2023-03-19T22:05:45.605Z,3.22
2023-03-19T22:09:07.792Z,8.20
2023-03-19T22:12:33.382Z,2.83
2023-03-19T22:15:57.957Z,7.45
2023-03-19T22:19:20.972Z,7.22
2023-03-19T22:22:43.258Z,4.28
2023-03-19T22:26:24.013Z,3.90
2023-03-19T22:29:46.751Z,2.17
2023-03-19T22:33:24.214Z,6.20
2023-03-19T22:36:46.811Z,2.45
2023-03-19T22:40:12.941Z,3.22
2023-03-19T22:43:36.492Z,3.35
2023-03-19T22:47:01.035Z,3.35
2023-03-19T22:50:28.774Z,3.72
2023-03-19T22:53:51.426Z,6.68
2023-03-19T22:57:17.436Z,1.55
2023-03-19T23:00:39.713Z,2.05
2023-03-19T23:04:24.610Z,4.32
2023-03-19T23:07:46.948Z,4.27
2023-03-19T23:11:09.222Z,1.85
2023-03-19T23:14:32.096Z,1.95
2023-03-19T23:17:58.464Z,3.78
2023-03-19T23:21:20.976Z,3.95
2023-03-19T23:24:44.631Z,5.03
2023-03-19T23:28:17.267Z,1.73
2023-03-19T23:31:39.466Z,4.35
2023-03-19T23:35:02.230Z,3.08
2023-03-19T23:38:24.601Z,6.18
2023-03-19T23:41:53.564Z,2.25
2023-03-19T23:45:42.768Z,2.28
2023-03-19T23:49:05.070Z,2.47
2023-03-19T23:52:27.288Z,4.32
2023-03-19T23:55:57.034Z,3.67
2023-03-19T23:59:19.362Z,2.25
